Time;durP1;ratioP1;P1;durP2;ratioP2;P2;SDS_P1;SDS_P2;PMS_P1;PMS_P2;Temp;Humidity;BMP_temperature;BMP_pressure;BME280_temperature;BME280_humidity;BME280_pressure;Samples;Min_cycle;Max_cycle;Signal;HPM_P1;HPM_P2
2022/03/19 06:02:54;;;;;;;1999.90;999.90;;;;;;;;;;6184555;23;20210;-71
2022/03/19 06:05:40;;;;;;;1999.90;999.90;;;;;;;;;;6184711;23;20166;-71
2022/03/19 06:08:24;;;;;;;1999.90;999.90;;;;;;;;;;6183740;23;20172;-70
2022/03/19 06:11:10;;;;;;;1999.90;999.90;;;;;;;;;;6184664;23;20704;-70
2022/03/19 06:13:56;;;;;;;1999.90;999.90;;;;;;;;;;6184475;23;20199;-70
2022/03/19 06:16:41;;;;;;;1999.90;999.90;;;;;;;;;;6184474;23;20266;-72
2022/03/19 06:19:27;;;;;;;1999.90;999.90;;;;;;;;;;6183839;23;20717;-70
2022/03/19 06:22:12;;;;;;;1999.90;999.90;;;;;;;;;;6184459;23;20583;-70
2022/03/19 06:24:57;;;;;;;1999.90;999.90;;;;;;;;;;6184491;23;20674;-71
2022/03/19 06:27:42;;;;;;;1999.90;999.90;;;;;;;;;;6183027;23;20424;-71
2022/03/19 06:30:27;;;;;;;1999.90;999.90;;;;;;;;;;6184097;23;20192;-67
2022/03/19 06:33:12;;;;;;;1999.90;999.90;;;;;;;;;;6184213;23;20231;-70
2022/03/19 06:39:01;;;;;;;1999.90;999.90;;;;;;;;;;6183380;23;20220;-71
2022/03/19 06:41:47;;;;;;;1999.90;999.90;;;;;;;;;;6184526;23;20251;-70
2022/03/19 06:44:33;;;;;;;1999.90;999.90;;;;;;;;;;6184256;23;20256;-71
2022/03/19 06:47:18;;;;;;;1999.90;999.90;;;;;;;;;;6183837;23;20188;-71
2022/03/19 06:50:03;;;;;;;1999.90;999.90;;;;;;;;;;6183398;23;20177;-70
2022/03/19 06:52:50;;;;;;;1999.90;999.90;;;;;;;;;;6184124;23;20578;-70
2022/03/19 06:55:35;;;;;;;1999.90;999.90;;;;;;;;;;6182824;23;20436;-70
2022/03/19 06:58:20;;;;;;;1999.90;999.90;;;;;;;;;;6183241;23;20170;-70
2022/03/19 07:01:05;;;;;;;1999.90;999.90;;;;;;;;;;6183877;23;20213;-71
2022/03/19 07:03:50;;;;;;;1999.90;999.90;;;;;;;;;;6184091;23;20183;-73
2022/03/19 07:06:35;;;;;;;1999.90;999.90;;;;;;;;;;6184127;23;20218;-71
2022/03/19 07:09:22;;;;;;;1999.90;999.90;;;;;;;;;;6183060;23;20170;-70
2022/03/19 07:12:11;;;;;;;1999.90;999.90;;;;;;;;;;6183858;23;20237;-73
2022/03/19 07:14:56;;;;;;;1999.90;999.90;;;;;;;;;;6183855;23;20507;-71
2022/03/19 07:17:41;;;;;;;1999.90;999.90;;;;;;;;;;6184181;23;20170;-72
2022/03/19 07:20:26;;;;;;;1999.90;999.90;;;;;;;;;;6184138;23;20166;-71
2022/03/19 07:23:11;;;;;;;1999.90;999.90;;;;;;;;;;6184661;23;20182;-71
2022/03/19 07:25:59;;;;;;;1999.90;999.90;;;;;;;;;;6183743;23;20193;-71
2022/03/19 07:28:44;;;;;;;1999.90;999.90;;;;;;;;;;6182873;23;20629;-72
2022/03/19 07:31:29;;;;;;;1999.90;999.90;;;;;;;;;;6183745;23;20264;-71
2022/03/19 07:34:14;;;;;;;1999.90;999.90;;;;;;;;;;6183719;23;20190;-70
2022/03/19 07:36:59;;;;;;;1999.90;999.90;;;;;;;;;;6183905;23;20170;-72
2022/03/19 07:39:44;;;;;;;1999.90;999.90;;;;;;;;;;6182959;23;20170;-69
2022/03/19 07:42:29;;;;;;;1999.90;999.90;;;;;;;;;;6184080;23;20205;-71
2022/03/19 07:45:14;;;;;;;1999.90;999.90;;;;;;;;;;6183486;23;20170;-72
2022/03/19 07:47:59;;;;;;;1999.90;999.90;;;;;;;;;;6181334;23;20190;-71
2022/03/19 07:50:44;;;;;;;1999.90;999.90;;;;;;;;;;6183587;23;20677;-71
2022/03/19 07:53:29;;;;;;;1999.90;999.90;;;;;;;;;;6183311;23;20172;-71
2022/03/19 07:56:14;;;;;;;1999.90;999.90;;;;;;;;;;6183385;23;20166;-73
2022/03/19 07:59:00;;;;;;;1999.90;999.90;;;;;;;;;;6183206;23;20693;-72
2022/03/19 08:01:48;;;;;;;1999.90;999.90;;;;;;;;;;6183403;23;20384;-72
2022/03/19 08:04:33;;;;;;;1999.90;999.90;;;;;;;;;;6185514;23;20203;-72
2022/03/19 08:07:19;;;;;;;1999.90;999.90;;;;;;;;;;6185124;23;20575;-71
2022/03/19 08:10:05;;;;;;;1999.90;999.90;;;;;;;;;;6184939;23;20183;-71
2022/03/19 08:12:50;;;;;;;1999.90;999.90;;;;;;;;;;6185483;23;20277;-69
2022/03/19 08:15:38;;;;;;;1999.90;999.90;;;;;;;;;;6185088;23;20165;-72
2022/03/19 08:18:23;;;;;;;1999.90;999.90;;;;;;;;;;6184678;23;20166;-72
2022/03/19 08:21:08;;;;;;;1999.90;999.90;;;;;;;;;;6185128;23;20209;-72
2022/03/19 08:23:53;;;;;;;1999.90;999.90;;;;;;;;;;6185328;23;20163;-72
2022/03/19 08:26:39;;;;;;;1999.90;999.90;;;;;;;;;;6184994;23;20174;-72
2022/03/19 08:29:25;;;;;;;1999.90;999.90;;;;;;;;;;6183708;23;20719;-69
2022/03/19 08:32:11;;;;;;;1999.90;999.90;;;;;;;;;;6185094;23;20217;-71
2022/03/19 08:34:56;;;;;;;1999.90;999.90;;;;;;;;;;6184987;23;20249;-73
2022/03/19 08:37:41;;;;;;;1999.90;999.90;;;;;;;;;;6184538;23;20302;-72
2022/03/19 08:40:28;;;;;;;1999.90;999.90;;;;;;;;;;6185027;23;20246;-73
2022/03/19 08:43:13;;;;;;;1999.90;999.90;;;;;;;;;;6185301;23;20167;-73
2022/03/19 08:45:58;;;;;;;1999.90;999.90;;;;;;;;;;6184914;23;20194;-72
2022/03/19 08:48:44;;;;;;;1999.90;999.90;;;;;;;;;;6183844;23;20170;-72
2022/03/19 08:51:41;;;;;;;1999.90;999.90;;;;;;;;;;6185211;23;20201;-71
2022/03/19 08:54:26;;;;;;;1999.90;999.90;;;;;;;;;;6185475;23;20195;-72
2022/03/19 08:57:11;;;;;;;1999.90;999.90;;;;;;;;;;6185756;23;20170;-72
2022/03/19 08:59:56;;;;;;;1999.90;999.90;;;;;;;;;;6184593;23;20174;-72
2022/03/19 09:02:41;;;;;;;1999.90;999.90;;;;;;;;;;6185119;23;20210;-71
2022/03/19 09:05:28;;;;;;;1999.90;999.90;;;;;;;;;;6185698;23;20170;-72
2022/03/19 09:08:13;;;;;;;1999.90;999.90;;;;;;;;;;6183404;23;20173;-72
2022/03/19 09:10:58;;;;;;;1999.90;999.90;;;;;;;;;;6184975;23;20209;-72
2022/03/19 09:13:43;;;;;;;1999.90;999.90;;;;;;;;;;6185067;23;20294;-72
2022/03/19 09:16:28;;;;;;;1999.90;999.90;;;;;;;;;;6185388;23;20245;-72
2022/03/19 09:19:13;;;;;;;1999.90;999.90;;;;;;;;;;6184057;23;20174;-71
2022/03/19 09:22:00;;;;;;;1999.90;999.90;;;;;;;;;;6185420;23;20205;-71
2022/03/19 09:24:45;;;;;;;1999.90;999.90;;;;;;;;;;6185469;23;20621;-72
2022/03/19 09:27:31;;;;;;;1999.90;999.90;;;;;;;;;;6184775;23;20680;-73
2022/03/19 09:30:16;;;;;;;1999.90;999.90;;;;;;;;;;6184714;23;20167;-74
2022/03/19 09:33:01;;;;;;;1999.90;999.90;;;;;;;;;;6184695;23;20254;-72
2022/03/19 09:35:46;;;;;;;1999.90;999.90;;;;;;;;;;6185156;23;20166;-70
2022/03/19 09:38:33;;;;;;;1999.90;999.90;;;;;;;;;;6183432;23;20222;-70
2022/03/19 09:41:17;;;;;;;1999.90;999.90;;;;;;;;;;6184081;23;20206;-70
2022/03/19 09:44:03;;;;;;;1999.90;999.90;;;;;;;;;;6184503;23;20166;-71
2022/03/19 09:46:47;;;;;;;1999.90;999.90;;;;;;;;;;6184429;23;20185;-71
2022/03/19 09:49:32;;;;;;;1999.90;999.90;;;;;;;;;;6183927;23;20169;-71
2022/03/19 09:52:19;;;;;;;1999.90;999.90;;;;;;;;;;6183994;23;20450;-71
2022/03/19 09:55:07;;;;;;;1999.90;999.90;;;;;;;;;;6184836;23;20237;-72
2022/03/19 09:57:52;;;;;;;1999.90;999.90;;;;;;;;;;6182789;23;20170;-73
2022/03/19 10:00:37;;;;;;;1999.90;999.90;;;;;;;;;;6184191;23;20166;-71
2022/03/19 10:03:23;;;;;;;1999.90;999.90;;;;;;;;;;6184213;23;20227;-71
2022/03/19 10:09:17;;;;;;;1999.90;999.90;;;;;;;;;;6183494;23;20166;-71
2022/03/19 10:12:04;;;;;;;1999.90;999.90;;;;;;;;;;6183912;23;20876;-70
2022/03/19 10:14:50;;;;;;;1999.90;999.90;;;;;;;;;;6183980;23;20190;-68
2022/03/19 10:17:36;;;;;;;1999.90;999.90;;;;;;;;;;6183855;23;20242;-72
2022/03/19 10:20:21;;;;;;;1999.90;999.90;;;;;;;;;;6184341;23;20170;-69
2022/03/19 10:23:06;;;;;;;1999.90;999.90;;;;;;;;;;6183988;23;20167;-71
2022/03/19 10:25:51;;;;;;;1999.90;999.90;;;;;;;;;;6183942;23;20199;-69
2022/03/19 10:28:37;;;;;;;1999.90;999.90;;;;;;;;;;6183133;23;20182;-71
2022/03/19 10:31:29;;;;;;;1999.90;999.90;;;;;;;;;;6183764;23;20698;-70
2022/03/19 10:34:15;;;;;;;1999.90;999.90;;;;;;;;;;6182802;23;20538;-71
2022/03/19 10:37:00;;;;;;;1999.90;999.90;;;;;;;;;;6184101;23;20278;-71
2022/03/19 10:39:46;;;;;;;1999.90;999.90;;;;;;;;;;6182230;23;20261;-72
2022/03/19 10:42:35;;;;;;;1999.90;999.90;;;;;;;;;;6183623;23;20534;-71
2022/03/19 10:45:22;;;;;;;1999.90;999.90;;;;;;;;;;6183651;23;20167;-70
2022/03/19 10:48:09;;;;;;;1999.90;999.90;;;;;;;;;;6182808;23;20174;-70
2022/03/19 10:50:54;;;;;;;1999.90;999.90;;;;;;;;;;6183691;23;20300;-70
2022/03/19 10:53:39;;;;;;;1999.90;999.90;;;;;;;;;;6183418;23;20294;-69
2022/03/19 10:56:25;;;;;;;1999.90;999.90;;;;;;;;;;6183202;23;20255;-68
2022/03/19 10:59:10;;;;;;;1999.90;999.90;;;;;;;;;;6182755;23;20620;-70
2022/03/19 11:01:57;;;;;;;1999.90;999.90;;;;;;;;;;6183136;23;20217;-70
2022/03/19 11:04:43;;;;;;;1999.90;999.90;;;;;;;;;;6183521;23;20166;-71
2022/03/19 11:07:31;;;;;;;1999.90;999.90;;;;;;;;;;6183519;23;20274;-70
2022/03/19 11:10:16;;;;;;;1999.90;999.90;;;;;;;;;;6183265;23;20168;-70
2022/03/19 11:13:02;;;;;;;1999.90;999.90;;;;;;;;;;6183147;23;20166;-72
2022/03/19 11:15:49;;;;;;;1999.90;999.90;;;;;;;;;;6183895;23;20552;-72
2022/03/19 11:18:35;;;;;;;1999.90;999.90;;;;;;;;;;6182661;23;20238;-71
2022/03/19 11:21:20;;;;;;;1999.90;999.90;;;;;;;;;;6183742;23;20204;-71
2022/03/19 11:24:08;;;;;;;1999.90;999.90;;;;;;;;;;6183229;23;20664;-71
2022/03/19 11:26:54;;;;;;;1999.90;999.90;;;;;;;;;;6183162;23;20171;-71
2022/03/19 11:29:38;;;;;;;1999.90;999.90;;;;;;;;;;6182272;23;20168;-71
2022/03/19 11:32:24;;;;;;;1999.90;999.90;;;;;;;;;;6183496;23;20529;-71
2022/03/19 11:35:10;;;;;;;1999.90;999.90;;;;;;;;;;6183027;23;20200;-71
2022/03/19 11:38:00;;;;;;;1999.90;999.90;;;;;;;;;;6181177;23;20375;-70
2022/03/19 11:40:47;;;;;;;1999.90;999.90;;;;;;;;;;6183723;23;20261;-71
2022/03/19 11:43:33;;;;;;;1999.90;999.90;;;;;;;;;;6183478;23;20173;-71
2022/03/19 11:46:18;;;;;;;1999.90;999.90;;;;;;;;;;6183509;23;20174;-70
2022/03/19 11:49:03;;;;;;;1999.90;999.90;;;;;;;;;;6182632;23;20173;-71
2022/03/19 11:51:50;;;;;;;1999.90;999.90;;;;;;;;;;6183028;23;20258;-71
2022/03/19 11:55:03;;;;;;;1999.90;999.90;;;;;;;;;;6183545;23;20241;-70
2022/03/19 11:57:49;;;;;;;1999.90;999.90;;;;;;;;;;6182624;23;20250;-70
2022/03/19 12:00:36;;;;;;;1999.90;999.90;;;;;;;;;;6182917;23;20500;-72
2022/03/19 12:03:24;;;;;;;1999.90;999.90;;;;;;;;;;6182940;23;20166;-71
2022/03/19 12:06:29;;;;;;;1999.90;999.90;;;;;;;;;;6183319;23;20213;-68
2022/03/19 12:09:15;;;;;;;1999.90;999.90;;;;;;;;;;6182904;23;20166;-72
2022/03/19 12:12:07;;;;;;;1999.90;999.90;;;;;;;;;;6182800;23;20281;-70
2022/03/19 12:14:52;;;;;;;1999.90;999.90;;;;;;;;;;6183759;23;20234;-71
2022/03/19 12:17:37;;;;;;;1999.90;999.90;;;;;;;;;;6182813;23;20168;-73
2022/03/19 12:20:23;;;;;;;1999.90;999.90;;;;;;;;;;6183715;23;20215;-70
2022/03/19 12:23:08;;;;;;;1999.90;999.90;;;;;;;;;;6183599;23;20174;-71
2022/03/19 12:25:59;;;;;;;1999.90;999.90;;;;;;;;;;6184115;23;20504;-72
2022/03/19 12:28:44;;;;;;;1999.90;999.90;;;;;;;;;;6182784;23;20169;-72
2022/03/19 12:31:30;;;;;;;1999.90;999.90;;;;;;;;;;6182791;23;20213;-69
2022/03/19 12:34:16;;;;;;;1999.90;999.90;;;;;;;;;;6183101;23;20274;-70
2022/03/19 12:37:02;;;;;;;1999.90;999.90;;;;;;;;;;6182355;23;20464;-68
2022/03/19 12:39:57;;;;;;;1999.90;999.90;;;;;;;;;;6181616;23;20173;-70
2022/03/19 12:42:49;;;;;;;1999.90;999.90;;;;;;;;;;6184786;23;20245;-71
2022/03/19 12:45:38;;;;;;;1999.90;999.90;;;;;;;;;;6184236;23;20169;-71
2022/03/19 12:48:31;;;;;;;1999.90;999.90;;;;;;;;;;6186005;23;20269;-71
2022/03/19 12:51:22;;;;;;;1999.90;999.90;;;;;;;;;;6186529;23;20208;-70
2022/03/19 12:54:18;;;;;;;1999.90;999.90;;;;;;;;;;6185574;23;20236;-71
2022/03/19 12:57:08;;;;;;;1999.90;999.90;;;;;;;;;;6187188;23;20672;-71
2022/03/19 12:59:55;;;;;;;1999.90;999.90;;;;;;;;;;6184284;23;20223;-70
2022/03/19 13:02:48;;;;;;;1999.90;999.90;;;;;;;;;;6185233;23;20228;-70
2022/03/19 13:05:33;;;;;;;1999.90;999.90;;;;;;;;;;6185342;23;20376;-70
2022/03/19 13:08:18;;;;;;;1999.90;999.90;;;;;;;;;;6184168;23;20247;-70
2022/03/19 13:11:02;;;;;;;1999.90;999.90;;;;;;;;;;6186450;23;20204;-71
2022/03/19 13:13:48;;;;;;;1999.90;999.90;;;;;;;;;;6185120;23;20172;-71
2022/03/19 13:16:34;;;;;;;1999.90;999.90;;;;;;;;;;6184761;23;20554;-71
2022/03/19 13:19:19;;;;;;;1999.90;999.90;;;;;;;;;;6183803;23;20173;-70
2022/03/19 13:22:05;;;;;;;1999.90;999.90;;;;;;;;;;6182488;23;20202;-70
2022/03/19 13:24:53;;;;;;;1999.90;999.90;;;;;;;;;;6184333;23;20162;-71
2022/03/19 13:27:38;;;;;;;1999.90;999.90;;;;;;;;;;6183665;23;20234;-71
2022/03/19 13:30:25;;;;;;;1999.90;999.90;;;;;;;;;;6184762;23;20174;-71
2022/03/19 13:33:15;;;;;;;1999.90;999.90;;;;;;;;;;6184727;23;20169;-68
2022/03/19 13:36:08;;;;;;;1999.90;999.90;;;;;;;;;;6185145;23;20294;-69
2022/03/19 13:38:54;;;;;;;1999.90;999.90;;;;;;;;;;6184191;23;20621;-71
2022/03/19 13:41:39;;;;;;;1999.90;999.90;;;;;;;;;;6185197;23;20207;-70
2022/03/19 13:44:31;;;;;;;1999.90;999.90;;;;;;;;;;6185068;23;20214;-71
2022/03/19 13:47:18;;;;;;;1999.90;999.90;;;;;;;;;;6185317;23;20652;-70
2022/03/19 13:50:07;;;;;;;1999.90;999.90;;;;;;;;;;6186867;23;20470;-69
2022/03/19 13:52:55;;;;;;;1999.90;999.90;;;;;;;;;;6185124;23;20254;-70
2022/03/19 13:55:41;;;;;;;1999.90;999.90;;;;;;;;;;6183923;23;20201;-71
2022/03/19 13:58:26;;;;;;;1999.90;999.90;;;;;;;;;;6183211;23;20184;-71
2022/03/19 14:01:11;;;;;;;1999.90;999.90;;;;;;;;;;6184069;23;20212;-70
2022/03/19 14:03:56;;;;;;;1999.90;999.90;;;;;;;;;;6184537;23;20636;-71
2022/03/19 14:06:44;;;;;;;1999.90;999.90;;;;;;;;;;6184494;23;20165;-69
2022/03/19 14:09:29;;;;;;;1999.90;999.90;;;;;;;;;;6183604;23;20210;-70
2022/03/19 14:12:31;;;;;;;1999.90;999.90;;;;;;;;;;6184364;23;20255;-71
2022/03/19 14:15:17;;;;;;;1999.90;999.90;;;;;;;;;;6184404;23;20276;-71
2022/03/19 14:18:02;;;;;;;1999.90;999.90;;;;;;;;;;6183552;23;20190;-71
2022/03/19 14:20:47;;;;;;;1999.90;999.90;;;;;;;;;;6183914;23;20267;-70
2022/03/19 14:23:34;;;;;;;1999.90;999.90;;;;;;;;;;6184348;23;20173;-68
2022/03/19 14:26:19;;;;;;;1999.90;999.90;;;;;;;;;;6184361;23;20696;-70
2022/03/19 14:29:04;;;;;;;1999.90;999.90;;;;;;;;;;6183275;23;20252;-71
2022/03/19 14:31:49;;;;;;;1999.90;999.90;;;;;;;;;;6183661;23;20757;-70
2022/03/19 14:34:34;;;;;;;1999.90;999.90;;;;;;;;;;6184092;23;20273;-69
2022/03/19 14:37:19;;;;;;;1999.90;999.90;;;;;;;;;;6184200;23;20508;-70
2022/03/19 14:40:07;;;;;;;1999.90;999.90;;;;;;;;;;6183592;23;20209;-70
2022/03/19 14:42:52;;;;;;;1999.90;999.90;;;;;;;;;;6183778;23;20185;-70
2022/03/19 14:45:37;;;;;;;1999.90;999.90;;;;;;;;;;6181140;23;20176;-71
2022/03/19 14:48:23;;;;;;;1999.90;999.90;;;;;;;;;;6180839;23;20212;-70
2022/03/19 14:51:08;;;;;;;1999.90;999.90;;;;;;;;;;6183855;23;20260;-69
2022/03/19 14:53:54;;;;;;;1999.90;999.90;;;;;;;;;;6181791;23;20741;-69
2022/03/19 14:56:42;;;;;;;1999.90;999.90;;;;;;;;;;6181995;23;20516;-71
2022/03/19 14:59:27;;;;;;;1999.90;999.90;;;;;;;;;;6181017;23;20303;-70
2022/03/19 15:02:12;;;;;;;1999.90;999.90;;;;;;;;;;6181712;23;20216;-70
2022/03/19 15:04:57;;;;;;;1999.90;999.90;;;;;;;;;;6181876;23;20169;-69
2022/03/19 15:07:42;;;;;;;1999.90;999.90;;;;;;;;;;6181923;23;20212;-70
2022/03/19 15:10:30;;;;;;;1999.90;999.90;;;;;;;;;;6181721;23;20170;-70
2022/03/19 15:13:17;;;;;;;1999.90;999.90;;;;;;;;;;6181858;23;20224;-70
2022/03/19 15:16:03;;;;;;;1999.90;999.90;;;;;;;;;;6182519;23;20212;-71
2022/03/19 15:18:48;;;;;;;1999.90;999.90;;;;;;;;;;6180691;23;20171;-70
2022/03/19 15:21:33;;;;;;;1999.90;999.90;;;;;;;;;;6182069;23;20258;-69
2022/03/19 15:24:18;;;;;;;1999.90;999.90;;;;;;;;;;6179325;23;20172;-68
2022/03/19 15:27:04;;;;;;;1999.90;999.90;;;;;;;;;;6179722;23;20503;-69
2022/03/19 15:29:52;;;;;;;1999.90;999.90;;;;;;;;;;6179748;23;20492;-68
2022/03/19 15:32:38;;;;;;;1999.90;999.90;;;;;;;;;;6178934;23;20208;-74
2022/03/19 15:35:27;;;;;;;1999.90;999.90;;;;;;;;;;6180184;23;20373;-68
2022/03/19 15:38:12;;;;;;;1999.90;999.90;;;;;;;;;;6181728;23;20242;-67
2022/03/19 15:40:57;;;;;;;1999.90;999.90;;;;;;;;;;6181262;23;20301;-66
2022/03/19 15:43:42;;;;;;;1999.90;999.90;;;;;;;;;;6182957;23;20236;-70
2022/03/19 15:46:29;;;;;;;1999.90;999.90;;;;;;;;;;6181458;23;20170;-70
2022/03/19 15:49:14;;;;;;;1999.90;999.90;;;;;;;;;;6182652;23;20305;-70
2022/03/19 15:51:58;;;;;;;1999.90;999.90;;;;;;;;;;6183083;23;20674;-69
2022/03/19 15:54:43;;;;;;;1999.90;999.90;;;;;;;;;;6183237;23;20168;-69
2022/03/19 15:57:28;;;;;;;1999.90;999.90;;;;;;;;;;6183155;23;20169;-67
2022/03/19 16:00:14;;;;;;;1999.90;999.90;;;;;;;;;;6183077;23;20247;-69
2022/03/19 16:03:00;;;;;;;1999.90;999.90;;;;;;;;;;6183222;23;20245;-69
2022/03/19 16:05:46;;;;;;;1999.90;999.90;;;;;;;;;;6182527;23;20424;-71
2022/03/19 16:08:30;;;;;;;1999.90;999.90;;;;;;;;;;6182292;23;20254;-69
2022/03/19 16:11:15;;;;;;;1999.90;999.90;;;;;;;;;;6183027;23;20605;-70
2022/03/19 16:14:00;;;;;;;1999.90;999.90;;;;;;;;;;6183199;23;20240;-70
2022/03/19 16:16:45;;;;;;;1999.90;999.90;;;;;;;;;;6182103;23;20527;-68
2022/03/19 16:19:32;;;;;;;1999.90;999.90;;;;;;;;;;6181380;23;20189;-71
2022/03/19 16:22:16;;;;;;;1999.90;999.90;;;;;;;;;;6185049;23;20280;-68
2022/03/19 16:25:01;;;;;;;1999.90;999.90;;;;;;;;;;6185575;23;20214;-70
2022/03/19 16:27:46;;;;;;;1999.90;999.90;;;;;;;;;;6184516;23;20172;-68
2022/03/19 16:30:31;;;;;;;1999.90;999.90;;;;;;;;;;6185581;23;20246;-70
2022/03/19 16:33:16;;;;;;;1999.90;999.90;;;;;;;;;;6184831;23;20172;-70
2022/03/19 16:36:03;;;;;;;1999.90;999.90;;;;;;;;;;6185541;23;20313;-68
2022/03/19 16:38:48;;;;;;;1999.90;999.90;;;;;;;;;;6184607;23;20166;-68
2022/03/19 16:41:33;;;;;;;1999.90;999.90;;;;;;;;;;6185397;23;20263;-69
2022/03/19 16:44:18;;;;;;;1999.90;999.90;;;;;;;;;;6184783;23;20788;-69
2022/03/19 16:47:03;;;;;;;1999.90;999.90;;;;;;;;;;6184637;23;20168;-69
2022/03/19 16:49:48;;;;;;;1999.90;999.90;;;;;;;;;;6183891;23;20176;-68
2022/03/19 16:52:34;;;;;;;1999.90;999.90;;;;;;;;;;6185084;23;20648;-69
2022/03/19 16:55:19;;;;;;;1999.90;999.90;;;;;;;;;;6185237;23;20190;-70
2022/03/19 16:58:04;;;;;;;1999.90;999.90;;;;;;;;;;6184382;23;20241;-69
2022/03/19 17:00:49;;;;;;;1999.90;999.90;;;;;;;;;;6184592;23;20210;-67
2022/03/19 17:03:34;;;;;;;1999.90;999.90;;;;;;;;;;6185195;23;20166;-70
2022/03/19 17:06:19;;;;;;;1999.90;999.90;;;;;;;;;;6184817;23;20164;-69
2022/03/19 17:09:05;;;;;;;1999.90;999.90;;;;;;;;;;6184090;23;20168;-69
2022/03/19 17:11:50;;;;;;;1999.90;999.90;;;;;;;;;;6184424;23;20258;-69
2022/03/19 17:14:35;;;;;;;1999.90;999.90;;;;;;;;;;6184615;23;20620;-68
2022/03/19 17:17:20;;;;;;;1999.90;999.90;;;;;;;;;;6184668;23;20286;-67
2022/03/19 17:20:06;;;;;;;1999.90;999.90;;;;;;;;;;6184746;23;20624;-68
2022/03/19 17:22:51;;;;;;;1999.90;999.90;;;;;;;;;;6184635;23;20170;-68
2022/03/19 17:25:39;;;;;;;1999.90;999.90;;;;;;;;;;6184388;23;20694;-68
2022/03/19 17:28:24;;;;;;;1999.90;999.90;;;;;;;;;;6183732;23;20165;-69
2022/03/19 17:31:09;;;;;;;1999.90;999.90;;;;;;;;;;6184036;23;20688;-69
2022/03/19 17:33:54;;;;;;;1999.90;999.90;;;;;;;;;;6184953;23;20253;-69
2022/03/19 17:36:39;;;;;;;1999.90;999.90;;;;;;;;;;6184804;23;20269;-69
2022/03/19 17:39:25;;;;;;;1999.90;999.90;;;;;;;;;;6182671;23;20439;-69
2022/03/19 17:42:11;;;;;;;1999.90;999.90;;;;;;;;;;6184780;23;20202;-69
2022/03/19 17:44:56;;;;;;;1999.90;999.90;;;;;;;;;;6184779;23;20622;-69
2022/03/19 17:47:42;;;;;;;1999.90;999.90;;;;;;;;;;6184629;23;20203;-70
2022/03/19 17:50:27;;;;;;;1999.90;999.90;;;;;;;;;;6185116;23;20626;-68
2022/03/19 17:53:12;;;;;;;1999.90;999.90;;;;;;;;;;6183846;23;20250;-68
2022/03/19 17:55:56;;;;;;;1999.90;999.90;;;;;;;;;;6184655;23;20587;-69
2022/03/19 17:58:43;;;;;;;1999.90;999.90;;;;;;;;;;6183210;23;20170;-69
2022/03/19 18:01:27;;;;;;;1999.90;999.90;;;;;;;;;;6183901;23;20218;-70
2022/03/19 18:04:12;;;;;;;1999.90;999.90;;;;;;;;;;6184097;23;20171;-68
2022/03/19 18:06:59;;;;;;;1999.90;999.90;;;;;;;;;;6184093;23;20166;-69
2022/03/19 18:09:44;;;;;;;1999.90;999.90;;;;;;;;;;6183296;23;20170;-68
2022/03/19 18:12:29;;;;;;;1999.90;999.90;;;;;;;;;;6184420;23;20205;-68
2022/03/19 18:15:16;;;;;;;1999.90;999.90;;;;;;;;;;6182159;23;20644;-69
2022/03/19 18:18:01;;;;;;;1999.90;999.90;;;;;;;;;;6181652;23;20249;-68
2022/03/19 18:20:46;;;;;;;1999.90;999.90;;;;;;;;;;6181524;23;20206;-69
2022/03/19 18:23:31;;;;;;;1999.90;999.90;;;;;;;;;;6182180;23;20166;-65
2022/03/19 18:26:16;;;;;;;1999.90;999.90;;;;;;;;;;6182311;23;20167;-68
2022/03/19 18:29:02;;;;;;;1999.90;999.90;;;;;;;;;;6181282;23;20186;-69
2022/03/19 18:31:48;;;;;;;1999.90;999.90;;;;;;;;;;6182287;23;20287;-70
2022/03/19 18:34:33;;;;;;;1999.90;999.90;;;;;;;;;;6182375;23;20254;-69
2022/03/19 18:37:18;;;;;;;1999.90;999.90;;;;;;;;;;6181808;23;20935;-69
2022/03/19 18:40:03;;;;;;;1999.90;999.90;;;;;;;;;;6183007;23;20249;-68
2022/03/19 18:42:49;;;;;;;1999.90;999.90;;;;;;;;;;6182560;23;20197;-68
2022/03/19 18:45:35;;;;;;;1999.90;999.90;;;;;;;;;;6182068;23;20189;-68
2022/03/19 18:48:22;;;;;;;1999.90;999.90;;;;;;;;;;6180893;23;20256;-67
2022/03/19 18:51:07;;;;;;;1999.90;999.90;;;;;;;;;;6181676;23;20539;-70
2022/03/19 18:53:54;;;;;;;1999.90;999.90;;;;;;;;;;6182284;23;20166;-68
2022/03/19 18:56:39;;;;;;;1999.90;999.90;;;;;;;;;;6181996;23;20193;-69
2022/03/19 18:59:24;;;;;;;1999.90;999.90;;;;;;;;;;6181191;23;20170;-68
2022/03/19 19:02:11;;;;;;;1999.90;999.90;;;;;;;;;;6181722;23;20273;-69
2022/03/19 19:04:58;;;;;;;1999.90;999.90;;;;;;;;;;6182794;23;20170;-68
2022/03/19 19:07:43;;;;;;;1999.90;999.90;;;;;;;;;;6181684;23;20493;-68
2022/03/19 19:10:28;;;;;;;1999.90;999.90;;;;;;;;;;6182035;23;20644;-69
2022/03/19 19:13:15;;;;;;;1999.90;999.90;;;;;;;;;;6181775;23;20165;-68
2022/03/19 19:16:00;;;;;;;1999.90;999.90;;;;;;;;;;6182046;23;20582;-70
2022/03/19 19:18:45;;;;;;;1999.90;999.90;;;;;;;;;;6181923;23;20285;-68
2022/03/19 19:21:32;;;;;;;1999.90;999.90;;;;;;;;;;6181831;23;20209;-67
2022/03/19 19:24:17;;;;;;;1999.90;999.90;;;;;;;;;;6182159;23;20170;-68
2022/03/19 19:27:02;;;;;;;1999.90;999.90;;;;;;;;;;6181992;23;20169;-69
2022/03/19 19:29:47;;;;;;;1999.90;999.90;;;;;;;;;;6181009;23;20182;-68
2022/03/19 19:32:32;;;;;;;1999.90;999.90;;;;;;;;;;6181811;23;20609;-69
2022/03/19 19:35:17;;;;;;;1999.90;999.90;;;;;;;;;;6182088;23;20166;-70
2022/03/19 19:38:03;;;;;;;1999.90;999.90;;;;;;;;;;6181019;23;20166;-70
2022/03/19 19:40:48;;;;;;;1999.90;999.90;;;;;;;;;;6182199;23;20222;-68
2022/03/19 19:43:34;;;;;;;1999.90;999.90;;;;;;;;;;6181501;23;20174;-69
2022/03/19 19:46:18;;;;;;;1999.90;999.90;;;;;;;;;;6181833;23;20167;-68
2022/03/19 19:49:03;;;;;;;1999.90;999.90;;;;;;;;;;6180952;23;20174;-69
2022/03/19 19:51:50;;;;;;;1999.90;999.90;;;;;;;;;;6181739;23;20538;-69
2022/03/19 19:54:44;;;;;;;1999.90;999.90;;;;;;;;;;6182085;23;20170;-68
2022/03/19 20:00:32;;;;;;;1999.90;999.90;;;;;;;;;;6183730;23;20190;-68
2022/03/19 20:03:17;;;;;;;1999.90;999.90;;;;;;;;;;6184141;23;20517;-67
2022/03/19 20:06:06;;;;;;;1999.90;999.90;;;;;;;;;;6183837;23;20185;-68
2022/03/19 20:08:51;;;;;;;1999.90;999.90;;;;;;;;;;6181453;23;20871;-69
2022/03/19 20:11:37;;;;;;;1999.90;999.90;;;;;;;;;;6183612;23;20222;-69
2022/03/19 20:14:23;;;;;;;1999.90;999.90;;;;;;;;;;6183453;23;20166;-67
2022/03/19 20:17:09;;;;;;;1999.90;999.90;;;;;;;;;;6183762;23;20198;-69
2022/03/19 20:19:54;;;;;;;1999.90;999.90;;;;;;;;;;6183258;23;20174;-67
2022/03/19 20:22:40;;;;;;;1999.90;999.90;;;;;;;;;;6183357;23;20225;-69
2022/03/19 20:25:25;;;;;;;1999.90;999.90;;;;;;;;;;6183360;23;20503;-68
2022/03/19 20:28:13;;;;;;;1999.90;999.90;;;;;;;;;;6182079;23;20617;-68
2022/03/19 20:30:59;;;;;;;1999.90;999.90;;;;;;;;;;6183627;23;20676;-69
2022/03/19 20:33:44;;;;;;;1999.90;999.90;;;;;;;;;;6183432;23;20253;-70
2022/03/19 20:36:29;;;;;;;1999.90;999.90;;;;;;;;;;6183450;23;20653;-69
2022/03/19 20:39:14;;;;;;;1999.90;999.90;;;;;;;;;;6181815;23;20962;-69
2022/03/19 20:41:59;;;;;;;1999.90;999.90;;;;;;;;;;6183481;23;20230;-70
2022/03/19 20:44:46;;;;;;;1999.90;999.90;;;;;;;;;;6183386;23;20506;-69
2022/03/19 20:47:33;;;;;;;1999.90;999.90;;;;;;;;;;6183582;23;20211;-67
2022/03/19 20:50:22;;;;;;;1999.90;999.90;;;;;;;;;;6183217;23;20205;-71
2022/03/19 20:53:08;;;;;;;1999.90;999.90;;;;;;;;;;6183203;23;20171;-69
2022/03/19 20:55:53;;;;;;;1999.90;999.90;;;;;;;;;;6183207;23;20169;-69
2022/03/19 20:58:38;;;;;;;1999.90;999.90;;;;;;;;;;6182358;23;20210;-68
2022/03/19 21:01:25;;;;;;;1999.90;999.90;;;;;;;;;;6183180;23;20212;-69
2022/03/19 21:04:10;;;;;;;1999.90;999.90;;;;;;;;;;6183057;23;20672;-68
2022/03/19 21:06:55;;;;;;;1999.90;999.90;;;;;;;;;;6182614;23;20166;-70
2022/03/19 21:09:41;;;;;;;1999.90;999.90;;;;;;;;;;6181945;23;20173;-68
2022/03/19 21:12:26;;;;;;;1999.90;999.90;;;;;;;;;;6182991;23;20257;-68
2022/03/19 21:15:12;;;;;;;1999.90;999.90;;;;;;;;;;6182690;23;20214;-68
2022/03/19 21:18:00;;;;;;;1999.90;999.90;;;;;;;;;;6182440;23;20511;-66
2022/03/19 21:20:44;;;;;;;1999.90;999.90;;;;;;;;;;6183699;23;20598;-68
2022/03/19 21:23:29;;;;;;;1999.90;999.90;;;;;;;;;;6184145;23;20685;-69
2022/03/19 21:26:15;;;;;;;1999.90;999.90;;;;;;;;;;6184870;23;20169;-65
2022/03/19 21:29:00;;;;;;;1999.90;999.90;;;;;;;;;;6184313;23;20683;-69
2022/03/19 21:31:45;;;;;;;1999.90;999.90;;;;;;;;;;6183878;23;20529;-69
2022/03/19 21:34:32;;;;;;;1999.90;999.90;;;;;;;;;;6184844;23;20241;-69
2022/03/19 21:37:17;;;;;;;1999.90;999.90;;;;;;;;;;6184432;23;20189;-70